sensor_id;sensor_type;location;lat;lon;timestamp;pressure;altitude;pressure_sealevel;temperature;humidity
47220;BME280;32961;51.936;4.788;2023-03-17T00:01:17;100718.81;;;8.05;70.25
47220;BME280;32961;51.936;4.788;2023-03-17T00:03:47;100718.94;;;8.03;70.21
47220;BME280;32961;51.936;4.788;2023-03-17T00:06:18;100722.50;;;8.03;71.02
47220;BME280;32961;51.936;4.788;2023-03-17T00:08:50;100703.94;;;7.99;70.63
47220;BME280;32961;51.936;4.788;2023-03-17T00:11:18;100699.13;;;8.02;70.69
47220;BME280;32961;51.936;4.788;2023-03-17T00:13:46;100698.41;;;8.00;71.18
47220;BME280;32961;51.936;4.788;2023-03-17T00:16:17;100688.84;;;7.96;71.38
47220;BME280;32961;51.936;4.788;2023-03-17T00:18:46;100684.28;;;7.97;70.78
47220;BME280;32961;51.936;4.788;2023-03-17T00:21:16;100691.69;;;7.95;71.14
47220;BME280;32961;51.936;4.788;2023-03-17T00:23:49;100694.50;;;7.93;70.68
47220;BME280;32961;51.936;4.788;2023-03-17T00:26:18;100692.81;;;7.92;71.35
47220;BME280;32961;51.936;4.788;2023-03-17T00:28:46;100697.47;;;7.90;70.95
47220;BME280;32961;51.936;4.788;2023-03-17T00:31:17;100697.63;;;7.89;71.32
47220;BME280;32961;51.936;4.788;2023-03-17T00:33:49;100702.16;;;7.88;71.69
47220;BME280;32961;51.936;4.788;2023-03-17T00:36:19;100697.63;;;7.89;71.23
47220;BME280;32961;51.936;4.788;2023-03-17T00:38:48;100705.84;;;7.87;71.04
47220;BME280;32961;51.936;4.788;2023-03-17T00:41:16;100704.25;;;7.84;71.27
47220;BME280;32961;51.936;4.788;2023-03-17T00:43:44;100694.31;;;7.85;71.38
47220;BME280;32961;51.936;4.788;2023-03-17T00:46:14;100685.31;;;7.84;71.96
47220;BME280;32961;51.936;4.788;2023-03-17T00:48:44;100678.34;;;7.82;71.56
47220;BME280;32961;51.936;4.788;2023-03-17T00:51:12;100665.69;;;7.82;71.24
47220;BME280;32961;51.936;4.788;2023-03-17T00:53:41;100669.38;;;7.81;72.21
47220;BME280;32961;51.936;4.788;2023-03-17T00:56:12;100667.38;;;7.83;72.07
47220;BME280;32961;51.936;4.788;2023-03-17T00:58:40;100668.41;;;7.82;71.78
47220;BME280;32961;51.936;4.788;2023-03-17T01:01:09;100674.88;;;7.80;71.77
47220;BME280;32961;51.936;4.788;2023-03-17T01:03:38;100684.03;;;7.79;71.59
47220;BME280;32961;51.936;4.788;2023-03-17T01:06:10;100691.03;;;7.81;71.61
47220;BME280;32961;51.936;4.788;2023-03-17T01:08:39;100680.44;;;7.78;72.19
47220;BME280;32961;51.936;4.788;2023-03-17T01:11:13;100687.84;;;7.76;72.09
47220;BME280;32961;51.936;4.788;2023-03-17T01:13:41;100679.97;;;7.73;71.60
47220;BME280;32961;51.936;4.788;2023-03-17T01:16:09;100674.31;;;7.76;71.74
47220;BME280;32961;51.936;4.788;2023-03-17T01:18:38;100676.44;;;7.73;71.88
47220;BME280;32961;51.936;4.788;2023-03-17T01:21:07;100676.53;;;7.71;72.04
47220;BME280;32961;51.936;4.788;2023-03-17T01:23:35;100676.81;;;7.68;72.06
47220;BME280;32961;51.936;4.788;2023-03-17T01:26:04;100673.22;;;7.67;72.20
47220;BME280;32961;51.936;4.788;2023-03-17T01:28:33;100669.09;;;7.63;71.92
47220;BME280;32961;51.936;4.788;2023-03-17T01:31:01;100669.94;;;7.64;72.12
47220;BME280;32961;51.936;4.788;2023-03-17T01:33:29;100667.38;;;7.62;72.27
47220;BME280;32961;51.936;4.788;2023-03-17T01:35:57;100662.22;;;7.59;72.46
47220;BME280;32961;51.936;4.788;2023-03-17T01:38:26;100661.50;;;7.57;72.36
47220;BME280;32961;51.936;4.788;2023-03-17T01:40:54;100650.81;;;7.55;72.42
47220;BME280;32961;51.936;4.788;2023-03-17T01:43:24;100659.03;;;7.54;73.18
47220;BME280;32961;51.936;4.788;2023-03-17T01:46:24;100638.41;;;7.53;72.68
47220;BME280;32961;51.936;4.788;2023-03-17T01:49:07;100640.25;;;7.52;73.40
47220;BME280;32961;51.936;4.788;2023-03-17T01:51:41;100638.06;;;7.46;73.08
47220;BME280;32961;51.936;4.788;2023-03-17T01:54:17;100637.22;;;7.46;72.79
47220;BME280;32961;51.936;4.788;2023-03-17T01:56:49;100643.59;;;7.45;72.71
47220;BME280;32961;51.936;4.788;2023-03-17T01:59:22;100639.19;;;7.44;73.03
47220;BME280;32961;51.936;4.788;2023-03-17T02:01:57;100631.31;;;7.41;72.36
47220;BME280;32961;51.936;4.788;2023-03-17T02:04:27;100633.44;;;7.37;72.83
47220;BME280;32961;51.936;4.788;2023-03-17T02:06:57;100632.72;;;7.35;73.80
47220;BME280;32961;51.936;4.788;2023-03-17T02:09:27;100636.53;;;7.32;72.98
47220;BME280;32961;51.936;4.788;2023-03-17T02:11:55;100629.41;;;7.31;73.93
47220;BME280;32961;51.936;4.788;2023-03-17T02:14:25;100630.53;;;7.29;73.36
47220;BME280;32961;51.936;4.788;2023-03-17T02:16:54;100635.78;;;7.30;74.00
47220;BME280;32961;51.936;4.788;2023-03-17T02:19:22;100624.97;;;7.30;73.25
47220;BME280;32961;51.936;4.788;2023-03-17T02:21:52;100635.03;;;7.28;73.54
47220;BME280;32961;51.936;4.788;2023-03-17T02:24:28;100639.34;;;7.31;73.31
47220;BME280;32961;51.936;4.788;2023-03-17T02:27:02;100630.53;;;7.29;73.21
47220;BME280;32961;51.936;4.788;2023-03-17T02:29:33;100626.09;;;7.28;73.54
47220;BME280;32961;51.936;4.788;2023-03-17T02:32:02;100623.41;;;7.28;73.74
47220;BME280;32961;51.936;4.788;2023-03-17T02:34:31;100622.66;;;7.26;74.51
47220;BME280;32961;51.936;4.788;2023-03-17T02:37:00;100627.94;;;7.27;73.94
47220;BME280;32961;51.936;4.788;2023-03-17T02:39:28;100630.53;;;7.29;73.39
47220;BME280;32961;51.936;4.788;2023-03-17T02:41:56;100624.25;;;7.28;73.94
47220;BME280;32961;51.936;4.788;2023-03-17T02:44:24;100619.72;;;7.29;73.92
47220;BME280;32961;51.936;4.788;2023-03-17T02:46:52;100622.28;;;7.30;74.12
47220;BME280;32961;51.936;4.788;2023-03-17T02:49:20;100630.53;;;7.29;73.49
47220;BME280;32961;51.936;4.788;2023-03-17T02:51:49;100635.94;;;7.29;74.53
47220;BME280;32961;51.936;4.788;2023-03-17T02:54:18;100630.38;;;7.30;73.73
47220;BME280;32961;51.936;4.788;2023-03-17T02:56:46;100632.09;;;7.31;73.63
47220;BME280;32961;51.936;4.788;2023-03-17T02:59:14;100626.69;;;7.31;73.52
47220;BME280;32961;51.936;4.788;2023-03-17T03:01:42;100631.22;;;7.31;74.40
47220;BME280;32961;51.936;4.788;2023-03-17T03:04:10;100624.13;;;7.30;74.69
47220;BME280;32961;51.936;4.788;2023-03-17T03:06:38;100621.44;;;7.30;74.00
47220;BME280;32961;51.936;4.788;2023-03-17T03:09:08;100611.59;;;7.29;74.08
47220;BME280;32961;51.936;4.788;2023-03-17T03:11:39;100619.72;;;7.29;73.93
47220;BME280;32961;51.936;4.788;2023-03-17T03:14:07;100609.75;;;7.29;74.79
47220;BME280;32961;51.936;4.788;2023-03-17T03:16:34;100619.44;;;7.32;74.78
47220;BME280;32961;51.936;4.788;2023-03-17T03:19:02;100631.13;;;7.32;74.33
47220;BME280;32961;51.936;4.788;2023-03-17T03:21:30;100628.28;;;7.34;74.36
47220;BME280;32961;51.936;4.788;2023-03-17T03:23:58;100641.78;;;7.34;74.54
47220;BME280;32961;51.936;4.788;2023-03-17T03:26:26;100633.81;;;7.32;74.76
47220;BME280;32961;51.936;4.788;2023-03-17T03:28:55;100635.41;;;7.35;74.52
47220;BME280;32961;51.936;4.788;2023-03-17T03:31:25;100639.84;;;7.36;74.95
47220;BME280;32961;51.936;4.788;2023-03-17T03:33:53;100630.84;;;7.35;74.85
47220;BME280;32961;51.936;4.788;2023-03-17T03:36:21;100637.13;;;7.36;74.48
47220;BME280;32961;51.936;4.788;2023-03-17T03:38:50;100634.53;;;7.34;75.23
47220;BME280;32961;51.936;4.788;2023-03-17T03:41:18;100637.13;;;7.36;74.54
47220;BME280;32961;51.936;4.788;2023-03-17T03:43:46;100639.84;;;7.36;75.66
47220;BME280;32961;51.936;4.788;2023-03-17T03:46:15;100641.66;;;7.35;75.00
47220;BME280;32961;51.936;4.788;2023-03-17T03:48:43;100648.78;;;7.36;74.93
47220;BME280;32961;51.936;4.788;2023-03-17T03:51:11;100641.56;;;7.37;75.48
47220;BME280;32961;51.936;4.788;2023-03-17T03:53:39;100645.09;;;7.37;75.52
47220;BME280;32961;51.936;4.788;2023-03-17T03:56:07;100652.09;;;7.40;74.99
47220;BME280;32961;51.936;4.788;2023-03-17T03:58:34;100662.91;;;7.40;74.88
47220;BME280;32961;51.936;4.788;2023-03-17T04:01:03;100650.22;;;7.41;75.33
47220;BME280;32961;51.936;4.788;2023-03-17T04:03:32;100659.97;;;7.43;74.39
47220;BME280;32961;51.936;4.788;2023-03-17T04:06:00;100661.66;;;7.44;74.93
47220;BME280;32961;51.936;4.788;2023-03-17T04:08:29;100655.25;;;7.45;74.75
47220;BME280;32961;51.936;4.788;2023-03-17T04:10:58;100656.00;;;7.47;74.65
47220;BME280;32961;51.936;4.788;2023-03-17T04:13:25;100657.88;;;7.47;74.92
47220;BME280;32961;51.936;4.788;2023-03-17T04:15:53;100657.72;;;7.48;75.04
47220;BME280;32961;51.936;4.788;2023-03-17T04:18:21;100649.63;;;7.48;75.04
47220;BME280;32961;51.936;4.788;2023-03-17T04:20:51;100655.03;;;7.48;74.70
47220;BME280;32961;51.936;4.788;2023-03-17T04:23:18;100662.16;;;7.49;75.06
47220;BME280;32961;51.936;4.788;2023-03-17T04:25:49;100644.06;;;7.50;74.96
47220;BME280;32961;51.936;4.788;2023-03-17T04:28:17;100644.06;;;7.50;75.16
47220;BME280;32961;51.936;4.788;2023-03-17T04:30:45;100645.78;;;7.51;74.94
47220;BME280;32961;51.936;4.788;2023-03-17T04:33:12;100652.03;;;7.51;75.60
47220;BME280;32961;51.936;4.788;2023-03-17T04:35:40;100644.81;;;7.52;75.78
47220;BME280;32961;51.936;4.788;2023-03-17T04:38:10;100644.81;;;7.52;75.29
47220;BME280;32961;51.936;4.788;2023-03-17T04:40:38;100661.03;;;7.52;74.97
47220;BME280;32961;51.936;4.788;2023-03-17T04:43:06;100664.56;;;7.52;75.31
47220;BME280;32961;51.936;4.788;2023-03-17T04:45:37;100660.16;;;7.51;75.21
47220;BME280;32961;51.936;4.788;2023-03-17T04:48:05;100668.25;;;7.51;75.08
47220;BME280;32961;51.936;4.788;2023-03-17T04:50:33;100661.03;;;7.52;74.83
47220;BME280;32961;51.936;4.788;2023-03-17T04:53:01;100655.72;;;7.50;75.11
47220;BME280;32961;51.936;4.788;2023-03-17T04:55:30;100661.03;;;7.52;75.78
47220;BME280;32961;51.936;4.788;2023-03-17T04:57:58;100661.03;;;7.52;75.25
47220;BME280;32961;51.936;4.788;2023-03-17T05:00:26;100653.91;;;7.51;75.69
47220;BME280;32961;51.936;4.788;2023-03-17T05:02:54;100649.22;;;7.53;75.54
47220;BME280;32961;51.936;4.788;2023-03-17T05:05:22;100656.47;;;7.52;75.30
47220;BME280;32961;51.936;4.788;2023-03-17T05:07:50;100659.16;;;7.52;75.66
47220;BME280;32961;51.936;4.788;2023-03-17T05:10:18;100641.38;;;7.50;75.71
47220;BME280;32961;51.936;4.788;2023-03-17T05:12:47;100616.19;;;7.49;75.55
47220;BME280;32961;51.936;4.788;2023-03-17T05:15:15;100611.63;;;7.50;76.00
47220;BME280;32961;51.936;4.788;2023-03-17T05:17:43;100617.88;;;7.50;75.92
47220;BME280;32961;51.936;4.788;2023-03-17T05:20:11;100624.16;;;7.51;76.42
47220;BME280;32961;51.936;4.788;2023-03-17T05:22:40;100626.00;;;7.50;75.97
47220;BME280;32961;51.936;4.788;2023-03-17T05:25:08;100609.06;;;7.48;75.80
47220;BME280;32961;51.936;4.788;2023-03-17T05:27:36;100613.47;;;7.49;75.62
47220;BME280;32961;51.936;4.788;2023-03-17T05:30:07;100618.16;;;7.47;75.75
47220;BME280;32961;51.936;4.788;2023-03-17T05:32:35;100609.06;;;7.48;76.11
47220;BME280;32961;51.936;4.788;2023-03-17T05:35:04;100610.03;;;7.47;75.69
47220;BME280;32961;51.936;4.788;2023-03-17T05:37:32;100613.59;;;7.48;75.84
47220;BME280;32961;51.936;4.788;2023-03-17T05:40:00;100625.41;;;7.47;75.96
47220;BME280;32961;51.936;4.788;2023-03-17T05:42:28;100635.22;;;7.48;75.73
47220;BME280;32961;51.936;4.788;2023-03-17T05:44:56;100634.25;;;7.49;75.61
47220;BME280;32961;51.936;4.788;2023-03-17T05:47:25;100623.56;;;7.47;75.81
47220;BME280;32961;51.936;4.788;2023-03-17T05:49:53;100623.69;;;7.46;75.35
47220;BME280;32961;51.936;4.788;2023-03-17T05:52:20;100611.31;;;7.43;76.09
47220;BME280;32961;51.936;4.788;2023-03-17T05:54:48;100616.56;;;7.45;75.75
47220;BME280;32961;51.936;4.788;2023-03-17T05:57:17;100621.25;;;7.43;75.82
47220;BME280;32961;51.936;4.788;2023-03-17T05:59:46;100625.81;;;7.42;75.71
47220;BME280;32961;51.936;4.788;2023-03-17T06:02:14;100618.81;;;7.39;75.40
47220;BME280;32961;51.936;4.788;2023-03-17T06:04:43;100624.31;;;7.38;75.44
47220;BME280;32961;51.936;4.788;2023-03-17T06:07:11;100630.75;;;7.37;76.50
47220;BME280;32961;51.936;4.788;2023-03-17T06:09:39;100631.72;;;7.36;76.01
47220;BME280;32961;51.936;4.788;2023-03-17T06:12:07;100624.59;;;7.35;75.51
47220;BME280;32961;51.936;4.788;2023-03-17T06:14:35;100628.28;;;7.34;75.93
47220;BME280;32961;51.936;4.788;2023-03-17T06:17:03;100621.28;;;7.31;76.71
47220;BME280;32961;51.936;4.788;2023-03-17T06:19:31;100626.69;;;7.31;76.30
47220;BME280;32961;51.936;4.788;2023-03-17T06:22:00;100623.41;;;7.28;76.14
47220;BME280;32961;51.936;4.788;2023-03-17T06:24:28;100620.81;;;7.26;76.54
47220;BME280;32961;51.936;4.788;2023-03-17T06:26:56;100615.41;;;7.26;76.05
47220;BME280;32961;51.936;4.788;2023-03-17T06:29:24;100633.47;;;7.26;76.57
47220;BME280;32961;51.936;4.788;2023-03-17T06:31:52;100639.84;;;7.25;77.23
47220;BME280;32961;51.936;4.788;2023-03-17T06:34:21;100639.75;;;7.26;76.14
47220;BME280;32961;51.936;4.788;2023-03-17T06:36:49;100646.13;;;7.25;76.73
47220;BME280;32961;51.936;4.788;2023-03-17T06:39:18;100646.97;;;7.26;76.36
47220;BME280;32961;51.936;4.788;2023-03-17T06:41:46;100633.47;;;7.26;76.99
47220;BME280;32961;51.936;4.788;2023-03-17T06:44:14;100636.31;;;7.24;76.55
47220;BME280;32961;51.936;4.788;2023-03-17T06:46:42;100634.94;;;7.30;76.73
47220;BME280;32961;51.936;4.788;2023-03-17T06:49:10;100632.25;;;7.30;76.92
47220;BME280;32961;51.936;4.788;2023-03-17T06:51:39;100621.16;;;7.33;77.15
47220;BME280;32961;51.936;4.788;2023-03-17T06:54:08;100624.47;;;7.36;76.67
47220;BME280;32961;51.936;4.788;2023-03-17T06:56:37;100631.44;;;7.39;76.11
47220;BME280;32961;51.936;4.788;2023-03-17T06:59:05;100639.41;;;7.41;76.49
47220;BME280;32961;51.936;4.788;2023-03-17T07:01:32;100629.22;;;7.44;76.57
47220;BME280;32961;51.936;4.788;2023-03-17T07:04:00;100636.34;;;7.45;77.08
47220;BME280;32961;51.936;4.788;2023-03-17T07:06:28;100635.22;;;7.48;77.04
47220;BME280;32961;51.936;4.788;2023-03-17T07:08:56;100639.50;;;7.50;76.73
47220;BME280;32961;51.936;4.788;2023-03-17T07:11:27;100642.94;;;7.52;76.47
47220;BME280;32961;51.936;4.788;2023-03-17T07:13:57;100652.41;;;7.58;76.64
47220;BME280;32961;51.936;4.788;2023-03-17T07:16:25;100648.56;;;7.61;76.96
47220;BME280;32961;51.936;4.788;2023-03-17T07:18:54;100644.59;;;7.65;77.16
47220;BME280;32961;51.936;4.788;2023-03-17T07:21:22;100647.22;;;7.66;76.61
47220;BME280;32961;51.936;4.788;2023-03-17T07:23:49;100647.78;;;7.70;77.10
47220;BME280;32961;51.936;4.788;2023-03-17T07:26:18;100637.81;;;7.70;77.20
47220;BME280;32961;51.936;4.788;2023-03-17T07:28:45;100627.47;;;7.76;77.27
47220;BME280;32961;51.936;4.788;2023-03-17T07:31:15;100623.41;;;7.81;77.00
47220;BME280;32961;51.936;4.788;2023-03-17T07:33:43;100609.59;;;7.84;77.75
47220;BME280;32961;51.936;4.788;2023-03-17T07:36:10;100604.53;;;7.91;77.23
47220;BME280;32961;51.936;4.788;2023-03-17T07:38:38;100618.34;;;7.98;77.47
47220;BME280;32961;51.936;4.788;2023-03-17T07:41:07;100624.22;;;8.03;76.91
47220;BME280;32961;51.936;4.788;2023-03-17T07:43:36;100633.53;;;8.10;77.24
47220;BME280;32961;51.936;4.788;2023-03-17T07:46:04;100638.00;;;8.21;77.12
47220;BME280;32961;51.936;4.788;2023-03-17T07:48:34;100636.81;;;8.35;77.58
47220;BME280;32961;51.936;4.788;2023-03-17T07:51:08;100642.75;;;8.50;77.30
47220;BME280;32961;51.936;4.788;2023-03-17T07:53:38;100627.38;;;8.60;76.54
47220;BME280;32961;51.936;4.788;2023-03-17T07:56:06;100640.81;;;8.72;76.19
47220;BME280;32961;51.936;4.788;2023-03-17T07:58:34;100661.94;;;8.78;75.46
47220;BME280;32961;51.936;4.788;2023-03-17T08:01:02;100660.38;;;8.85;75.42
47220;BME280;32961;51.936;4.788;2023-03-17T08:03:30;100647.16;;;8.92;75.18
47220;BME280;32961;51.936;4.788;2023-03-17T08:05:59;100654.34;;;9.03;75.45
47220;BME280;32961;51.936;4.788;2023-03-17T08:08:29;100654.94;;;9.16;75.52
47220;BME280;32961;51.936;4.788;2023-03-17T08:10:59;100649.94;;;9.31;75.04
47220;BME280;32961;51.936;4.788;2023-03-17T08:13:29;100653.50;;;9.41;74.52
47220;BME280;32961;51.936;4.788;2023-03-17T08:15:57;100653.25;;;9.54;74.21
47220;BME280;32961;51.936;4.788;2023-03-17T08:18:25;100653.81;;;9.68;73.72
47220;BME280;32961;51.936;4.788;2023-03-17T08:20:53;100645.53;;;9.79;73.36
47220;BME280;32961;51.936;4.788;2023-03-17T08:23:24;100655.38;;;9.90;72.94
47220;BME280;32961;51.936;4.788;2023-03-17T08:25:56;100658.75;;;10.02;72.43
47220;BME280;32961;51.936;4.788;2023-03-17T08:28:25;100658.63;;;10.13;71.99
47220;BME280;32961;51.936;4.788;2023-03-17T08:30:53;100655.16;;;10.21;71.87
47220;BME280;32961;51.936;4.788;2023-03-17T08:33:21;100660.88;;;10.27;71.46
47220;BME280;32961;51.936;4.788;2023-03-17T08:35:49;100646.28;;;10.28;70.89
47220;BME280;32961;51.936;4.788;2023-03-17T08:38:17;100659.56;;;10.32;71.03
47220;BME280;32961;51.936;4.788;2023-03-17T08:40:46;100658.25;;;10.36;71.06
47220;BME280;32961;51.936;4.788;2023-03-17T08:43:16;100643.28;;;10.41;71.11
47220;BME280;32961;51.936;4.788;2023-03-17T08:45:45;100639.13;;;10.47;71.27
47220;BME280;32961;51.936;4.788;2023-03-17T08:48:13;100654.66;;;10.55;70.84
47220;BME280;32961;51.936;4.788;2023-03-17T08:50:41;100655.91;;;10.60;70.57
47220;BME280;32961;51.936;4.788;2023-03-17T08:53:09;100651.59;;;10.68;70.49
47220;BME280;32961;51.936;4.788;2023-03-17T08:55:37;100652.16;;;10.71;70.31
47220;BME280;32961;51.936;4.788;2023-03-17T08:58:06;100655.59;;;10.73;69.78
47220;BME280;32961;51.936;4.788;2023-03-17T09:00:34;100652.56;;;10.76;69.60
47220;BME280;32961;51.936;4.788;2023-03-17T09:03:02;100662.97;;;10.81;70.14
47220;BME280;32961;51.936;4.788;2023-03-17T09:05:31;100663.25;;;10.88;69.77
47220;BME280;32961;51.936;4.788;2023-03-17T09:08:03;100669.78;;;10.95;69.07
47220;BME280;32961;51.936;4.788;2023-03-17T09:10:31;100645.63;;;10.92;68.42
47220;BME280;32961;51.936;4.788;2023-03-17T09:12:59;100665.69;;;11.09;67.54
47220;BME280;32961;51.936;4.788;2023-03-17T09:15:31;100670.06;;;11.20;66.92
47220;BME280;32961;51.936;4.788;2023-03-17T09:18:00;100678.88;;;11.32;65.95
47220;BME280;32961;51.936;4.788;2023-03-17T09:20:28;100675.22;;;11.41;66.06
47220;BME280;32961;51.936;4.788;2023-03-17T09:22:57;100674.97;;;11.52;65.34
47220;BME280;32961;51.936;4.788;2023-03-17T09:25:25;100681.06;;;11.64;64.50
47220;BME280;32961;51.936;4.788;2023-03-17T09:27:54;100678.81;;;11.78;64.51
47220;BME280;32961;51.936;4.788;2023-03-17T09:30:22;100681.28;;;11.89;63.82
47220;BME280;32961;51.936;4.788;2023-03-17T09:32:53;100685.66;;;12.00;63.07
47220;BME280;32961;51.936;4.788;2023-03-17T09:35:21;100679.03;;;12.02;62.20
47220;BME280;32961;51.936;4.788;2023-03-17T09:37:50;100679.59;;;12.06;63.03
47220;BME280;32961;51.936;4.788;2023-03-17T09:40:20;100687.13;;;12.12;62.69
47220;BME280;32961;51.936;4.788;2023-03-17T09:42:56;100693.47;;;12.21;62.95
47220;BME280;32961;51.936;4.788;2023-03-17T09:45:31;100686.75;;;12.33;62.63
47220;BME280;32961;51.936;4.788;2023-03-17T09:48:23;100691.94;;;12.45;62.23
47220;BME280;32961;51.936;4.788;2023-03-17T09:50:57;100704.59;;;12.54;62.16
47220;BME280;32961;51.936;4.788;2023-03-17T09:53:29;100706.00;;;12.58;61.33
47220;BME280;32961;51.936;4.788;2023-03-17T09:56:02;100715.88;;;12.59;61.74
47220;BME280;32961;51.936;4.788;2023-03-17T09:58:34;100720.00;;;12.63;61.84
47220;BME280;32961;51.936;4.788;2023-03-17T10:01:03;100727.19;;;12.73;62.52
47220;BME280;32961;51.936;4.788;2023-03-17T10:03:32;100718.09;;;12.90;62.80
47220;BME280;32961;51.936;4.788;2023-03-17T10:06:14;100724.38;;;13.17;61.55
47220;BME280;32961;51.936;4.788;2023-03-17T10:08:50;100716.56;;;13.30;60.96
47220;BME280;32961;51.936;4.788;2023-03-17T10:11:27;100719.34;;;13.39;60.94
47220;BME280;32961;51.936;4.788;2023-03-17T10:13:59;100716.31;;;13.50;60.99
47220;BME280;32961;51.936;4.788;2023-03-17T10:16:35;100722.28;;;13.54;60.00
47220;BME280;32961;51.936;4.788;2023-03-17T10:19:15;100728.25;;;13.49;59.05
47220;BME280;32961;51.936;4.788;2023-03-17T10:21:50;100728.38;;;13.47;59.21
47220;BME280;32961;51.936;4.788;2023-03-17T10:24:20;100728.22;;;13.41;59.30
47220;BME280;32961;51.936;4.788;2023-03-17T10:26:50;100730.25;;;13.39;59.49
47220;BME280;32961;51.936;4.788;2023-03-17T10:29:20;100723.78;;;13.40;59.61
47220;BME280;32961;51.936;4.788;2023-03-17T10:31:50;100728.53;;;13.38;59.03
47220;BME280;32961;51.936;4.788;2023-03-17T10:34:26;100733.66;;;13.41;59.68
47220;BME280;32961;51.936;4.788;2023-03-17T10:36:59;100727.03;;;13.43;59.54
47220;BME280;32961;51.936;4.788;2023-03-17T10:39:27;100722.59;;;13.42;59.84
47220;BME280;32961;51.936;4.788;2023-03-17T10:42:02;100723.28;;;13.44;60.15
47220;BME280;32961;51.936;4.788;2023-03-17T10:44:39;100716.63;;;13.47;59.38
47220;BME280;32961;51.936;4.788;2023-03-17T10:49:53;100708.81;;;13.60;59.73
47220;BME280;32961;51.936;4.788;2023-03-17T10:52:26;100703.19;;;13.62;59.72
47220;BME280;32961;51.936;4.788;2023-03-17T10:54:55;100695.16;;;13.60;60.09
47220;BME280;32961;51.936;4.788;2023-03-17T10:57:27;100708.13;;;13.58;59.90
47220;BME280;32961;51.936;4.788;2023-03-17T10:59:58;100695.47;;;13.57;59.82
47220;BME280;32961;51.936;4.788;2023-03-17T11:02:29;100688.34;;;13.56;60.48
47220;BME280;32961;51.936;4.788;2023-03-17T11:05:03;100686.81;;;13.54;60.04
47220;BME280;32961;51.936;4.788;2023-03-17T11:07:35;100684.25;;;13.60;60.26
47220;BME280;32961;51.936;4.788;2023-03-17T11:10:14;100671.63;;;13.68;60.37
47220;BME280;32961;51.936;4.788;2023-03-17T11:12:45;100668.22;;;13.82;60.95
47220;BME280;32961;51.936;4.788;2023-03-17T11:15:16;100677.81;;;14.03;60.80
47220;BME280;32961;51.936;4.788;2023-03-17T11:17:53;100675.03;;;14.19;60.65
47220;BME280;32961;51.936;4.788;2023-03-17T11:20:34;100667.69;;;14.20;58.65
47220;BME280;32961;51.936;4.788;2023-03-17T11:23:13;100666.66;;;14.37;59.44
47220;BME280;32961;51.936;4.788;2023-03-17T11:25:47;100662.03;;;14.29;57.75
47220;BME280;32961;51.936;4.788;2023-03-17T11:28:18;100672.97;;;14.38;59.17
47220;BME280;32961;51.936;4.788;2023-03-17T11:30:54;100672.75;;;14.56;59.34
47220;BME280;32961;51.936;4.788;2023-03-17T11:33:34;100665.91;;;14.76;59.13
47220;BME280;32961;51.936;4.788;2023-03-17T11:36:12;100671.59;;;14.98;58.93
47220;BME280;32961;51.936;4.788;2023-03-17T11:38:50;100671.53;;;15.15;58.14
47220;BME280;32961;51.936;4.788;2023-03-17T11:41:44;100666.03;;;15.23;57.70
47220;BME280;32961;51.936;4.788;2023-03-17T11:44:43;100665.47;;;15.28;57.10
47220;BME280;32961;51.936;4.788;2023-03-17T11:47:26;100661.16;;;15.33;57.21
47220;BME280;32961;51.936;4.788;2023-03-17T11:50:04;100643.34;;;15.37;57.35
47220;BME280;32961;51.936;4.788;2023-03-17T11:52:47;100634.25;;;15.45;57.33
47220;BME280;32961;51.936;4.788;2023-03-17T11:55:21;100633.31;;;15.53;57.13
47220;BME280;32961;51.936;4.788;2023-03-17T11:57:54;100642.22;;;15.55;56.77
47220;BME280;32961;51.936;4.788;2023-03-17T12:00:28;100645.31;;;15.52;56.68
47220;BME280;32961;51.936;4.788;2023-03-17T12:03:00;100636.97;;;15.45;56.49
47220;BME280;32961;51.936;4.788;2023-03-17T12:05:35;100636.97;;;15.45;56.70
47220;BME280;32961;51.936;4.788;2023-03-17T12:08:09;100641.78;;;15.43;56.72
47220;BME280;32961;51.936;4.788;2023-03-17T12:10:45;100633.56;;;15.43;57.52
47220;BME280;32961;51.936;4.788;2023-03-17T12:13:18;100642.06;;;15.48;57.86
47220;BME280;32961;51.936;4.788;2023-03-17T12:15:49;100647.56;;;15.48;57.50
47220;BME280;32961;51.936;4.788;2023-03-17T12:18:23;100641.34;;;15.54;57.63
47220;BME280;32961;51.936;4.788;2023-03-17T12:20:58;100641.97;;;15.65;58.10
47220;BME280;32961;51.936;4.788;2023-03-17T12:23:32;100656.25;;;15.75;57.73
47220;BME280;32961;51.936;4.788;2023-03-17T12:26:04;100647.28;;;15.90;57.46
47220;BME280;32961;51.936;4.788;2023-03-17T12:28:41;100647.97;;;15.92;57.28
47220;BME280;32961;51.936;4.788;2023-03-17T12:31:13;100649.81;;;15.91;56.70
47220;BME280;32961;51.936;4.788;2023-03-17T12:33:48;100641.81;;;15.90;56.86
47220;BME280;32961;51.936;4.788;2023-03-17T12:36:19;100647.63;;;15.86;57.10
47220;BME280;32961;51.936;4.788;2023-03-17T12:38:52;100641.50;;;15.84;57.00
47220;BME280;32961;51.936;4.788;2023-03-17T12:41:48;100642.53;;;15.83;56.98
47220;BME280;32961;51.936;4.788;2023-03-17T12:44:33;100643.56;;;15.82;57.21
47220;BME280;32961;51.936;4.788;2023-03-17T12:47:18;100658.97;;;15.83;57.20
47220;BME280;32961;51.936;4.788;2023-03-17T12:49:59;100653.50;;;15.83;57.37
47220;BME280;32961;51.936;4.788;2023-03-17T12:55:23;100635.63;;;15.87;56.98
47220;BME280;32961;51.936;4.788;2023-03-17T12:57:59;100640.09;;;15.88;57.04
47220;BME280;32961;51.936;4.788;2023-03-17T13:00:30;100644.34;;;15.91;57.05
47220;BME280;32961;51.936;4.788;2023-03-17T13:03:16;100635.56;;;15.96;57.24
47220;BME280;32961;51.936;4.788;2023-03-17T13:05:49;100635.66;;;16.02;56.98
47220;BME280;32961;51.936;4.788;2023-03-17T13:08:23;100635.13;;;16.07;56.81
47220;BME280;32961;51.936;4.788;2023-03-17T13:11:13;100636.47;;;16.11;56.62
47220;BME280;32961;51.936;4.788;2023-03-17T13:16:30;100640.06;;;16.27;56.35
47220;BME280;32961;51.936;4.788;2023-03-17T13:19:11;100637.63;;;16.32;56.04
47220;BME280;32961;51.936;4.788;2023-03-17T13:21:43;100642.94;;;16.33;56.16
47220;BME280;32961;51.936;4.788;2023-03-17T13:24:19;100641.69;;;16.36;56.11